Idabel, OK

9:10 AM CDT on March 29, 2017 (GMT -0500)
Downtown Idabel, OK | | Change Station

Elev 427 ft 33.88 °N, 94.76 °W | Updated 1 minute ago

Mostly Cloudy
Mostly Cloudy
60.8 °F
Feels Like 60.8 °F
N
4.0
Wind Variable Wind from East

Today
High -- | Low -- °F
--% Chance of Precip.
Yesterday
High -- | Low -- °F
Precip. -- in
Pressure 29.75 in
Visibility 10.0 miles
Clouds Scattered Clouds 10000 ft
Mostly Cloudy 11000 ft
Dew Point 60 °F
Humidity 99%
Rainfall 0.44 in
Snow Depth Not available.
7:10 AM 7:38 PM
Waxing Crescent, 3% visible
METAR KDEQ 291353Z AUTO 11010KT 10SM SCT100 BKN110 16/16 A2976 RMK AO2 RAE00B18E52 PRESFR SLP073 P0000 T01560156
Pressure 29.75 in
Visibility 10.0 miles
Clouds Scattered Clouds 10000 ft
Mostly Cloudy 11000 ft
Dew Point 60 °F
Humidity 99%
Rainfall 0.44 in
Snow Depth Not available.
7:10 AM 7:38 PM
Waxing Crescent, 3% visible
METAR KDEQ 291353Z AUTO 11010KT 10SM SCT100 BKN110 16/16 A2976 RMK AO2 RAE00B18E52 PRESFR SLP073 P0000 T01560156

Get Severe Weather Alerts

Thanks for signing up!

Be on the lookout for a verification email in your inbox.

You'll start receiving the daily forecast at 8 AM.

×

10-Day Weather Forecast

Almanac

Astronomy

Mar. 29, 2017 Rise Set
Actual Time
Civil Twilight
Nautical Twilight
Astronomical Twilight
Moon
Length of Visible Light
Length of Day
Tomorrow will be .
, % of the Moon is Illuminated

Today's Extremes

State Highs State Lows

Community

WunderPhotos

Upload Photos

1,962,540 photos uploaded!

WunderBlog® & News

Nearby

Air Quality

  Air Quality AQ Index Pollutant
Not available.

Snow Depth

Station Depth Elevation

Earthquake Activity

City Distance Mag. Time & Date
Minimum magnitude displayed is 2.5.

Earthquake Activity

City Distance Mag. Time & Date
Minimum magnitude displayed is 2.5.

Coastal Water Temperatures

Place Temperature

Stations

Nearby Weather Stations

Station Location Temp. Windchill Dew Point Humidity Wind Precip. Elev Updated Type
                   

Watches & Warnings

There are currently no watches in effect.